sensor_id;sensor_type;location;lat;lon;timestamp;temperature;humidity
5041;DHT22;2539;52.568;13.364;2023-07-31T00:00:52;15.50;99.90
5041;DHT22;2539;52.568;13.364;2023-07-31T00:03:18;15.50;99.90
5041;DHT22;2539;52.568;13.364;2023-07-31T00:05:44;15.40;99.90
5041;DHT22;2539;52.568;13.364;2023-07-31T00:08:11;15.40;99.90
5041;DHT22;2539;52.568;13.364;2023-07-31T00:10:37;15.30;99.90
5041;DHT22;2539;52.568;13.364;2023-07-31T00:13:03;15.20;99.90
5041;DHT22;2539;52.568;13.364;2023-07-31T00:15:29;15.20;99.90
5041;DHT22;2539;52.568;13.364;2023-07-31T00:17:55;15.20;99.90
5041;DHT22;2539;52.568;13.364;2023-07-31T00:20:21;15.20;99.90
5041;DHT22;2539;52.568;13.364;2023-07-31T00:22:55;15.10;99.90
5041;DHT22;2539;52.568;13.364;2023-07-31T00:25:22;15.10;99.90
5041;DHT22;2539;52.568;13.364;2023-07-31T00:27:48;15.20;99.90
5041;DHT22;2539;52.568;13.364;2023-07-31T00:30:14;15.30;99.90
5041;DHT22;2539;52.568;13.364;2023-07-31T00:32:40;15.30;99.90
5041;DHT22;2539;52.568;13.364;2023-07-31T00:35:07;15.30;99.90
5041;DHT22;2539;52.568;13.364;2023-07-31T00:37:33;15.40;99.90
5041;DHT22;2539;52.568;13.364;2023-07-31T00:39:59;15.30;99.90
5041;DHT22;2539;52.568;13.364;2023-07-31T00:42:26;15.40;99.90
5041;DHT22;2539;52.568;13.364;2023-07-31T00:44:52;15.40;99.90
5041;DHT22;2539;52.568;13.364;2023-07-31T00:47:18;15.40;99.90
5041;DHT22;2539;52.568;13.364;2023-07-31T00:49:45;15.50;99.90
5041;DHT22;2539;52.568;13.364;2023-07-31T00:52:12;15.50;99.90
5041;DHT22;2539;52.568;13.364;2023-07-31T00:54:38;15.60;99.90
5041;DHT22;2539;52.568;13.364;2023-07-31T00:57:05;15.60;99.90
5041;DHT22;2539;52.568;13.364;2023-07-31T00:59:34;15.70;99.90
5041;DHT22;2539;52.568;13.364;2023-07-31T01:02:00;15.70;99.90
5041;DHT22;2539;52.568;13.364;2023-07-31T01:04:27;15.80;99.90
5041;DHT22;2539;52.568;13.364;2023-07-31T01:09:47;15.90;99.90
5041;DHT22;2539;52.568;13.364;2023-07-31T01:12:16;15.90;99.90
5041;DHT22;2539;52.568;13.364;2023-07-31T01:15:05;15.90;99.90
5041;DHT22;2539;52.568;13.364;2023-07-31T01:17:32;16.00;99.90
5041;DHT22;2539;52.568;13.364;2023-07-31T01:20:01;16.10;99.90
5041;DHT22;2539;52.568;13.364;2023-07-31T01:22:39;16.00;99.90
5041;DHT22;2539;52.568;13.364;2023-07-31T01:25:26;16.10;99.90
5041;DHT22;2539;52.568;13.364;2023-07-31T01:28:07;16.00;99.90
5041;DHT22;2539;52.568;13.364;2023-07-31T01:30:37;16.10;99.90
5041;DHT22;2539;52.568;13.364;2023-07-31T01:33:04;16.10;99.90
5041;DHT22;2539;52.568;13.364;2023-07-31T01:35:34;16.10;99.90
5041;DHT22;2539;52.568;13.364;2023-07-31T01:38:00;16.00;99.90
5041;DHT22;2539;52.568;13.364;2023-07-31T01:40:27;16.10;99.90
5041;DHT22;2539;52.568;13.364;2023-07-31T01:42:53;16.10;99.90
5041;DHT22;2539;52.568;13.364;2023-07-31T01:45:19;16.10;99.90
5041;DHT22;2539;52.568;13.364;2023-07-31T01:47:46;16.10;99.90
5041;DHT22;2539;52.568;13.364;2023-07-31T01:50:12;16.00;99.90
5041;DHT22;2539;52.568;13.364;2023-07-31T01:52:38;16.00;99.90
5041;DHT22;2539;52.568;13.364;2023-07-31T01:55:04;16.00;99.90
5041;DHT22;2539;52.568;13.364;2023-07-31T01:57:31;16.00;99.90
5041;DHT22;2539;52.568;13.364;2023-07-31T01:59:57;16.00;99.90
5041;DHT22;2539;52.568;13.364;2023-07-31T02:02:23;16.10;99.90
5041;DHT22;2539;52.568;13.364;2023-07-31T02:04:49;16.00;99.90
5041;DHT22;2539;52.568;13.364;2023-07-31T02:07:16;16.00;99.90
5041;DHT22;2539;52.568;13.364;2023-07-31T02:09:42;16.00;99.90
5041;DHT22;2539;52.568;13.364;2023-07-31T02:12:09;16.00;99.90
5041;DHT22;2539;52.568;13.364;2023-07-31T02:14:35;16.00;99.90
5041;DHT22;2539;52.568;13.364;2023-07-31T02:17:01;16.00;99.90
5041;DHT22;2539;52.568;13.364;2023-07-31T02:19:27;16.00;99.90
5041;DHT22;2539;52.568;13.364;2023-07-31T02:21:54;16.10;99.90
5041;DHT22;2539;52.568;13.364;2023-07-31T02:24:20;16.10;99.90
5041;DHT22;2539;52.568;13.364;2023-07-31T02:26:46;16.10;99.90
5041;DHT22;2539;52.568;13.364;2023-07-31T02:29:13;16.10;99.90
5041;DHT22;2539;52.568;13.364;2023-07-31T02:31:39;16.10;99.90
5041;DHT22;2539;52.568;13.364;2023-07-31T02:34:05;16.10;99.90
5041;DHT22;2539;52.568;13.364;2023-07-31T02:36:30;16.00;99.90
5041;DHT22;2539;52.568;13.364;2023-07-31T02:38:56;16.00;99.90
5041;DHT22;2539;52.568;13.364;2023-07-31T02:41:22;16.00;99.90
5041;DHT22;2539;52.568;13.364;2023-07-31T02:43:48;16.00;99.90
5041;DHT22;2539;52.568;13.364;2023-07-31T02:46:14;16.10;99.90
5041;DHT22;2539;52.568;13.364;2023-07-31T02:48:40;16.10;99.90
5041;DHT22;2539;52.568;13.364;2023-07-31T02:51:07;16.10;99.90
5041;DHT22;2539;52.568;13.364;2023-07-31T02:53:33;16.10;99.90
5041;DHT22;2539;52.568;13.364;2023-07-31T02:55:59;16.10;99.90
5041;DHT22;2539;52.568;13.364;2023-07-31T02:58:25;16.10;99.90
5041;DHT22;2539;52.568;13.364;2023-07-31T03:00:51;16.10;99.90
5041;DHT22;2539;52.568;13.364;2023-07-31T03:03:18;16.10;99.90
5041;DHT22;2539;52.568;13.364;2023-07-31T03:05:44;16.10;99.90
5041;DHT22;2539;52.568;13.364;2023-07-31T03:08:10;16.10;99.90
5041;DHT22;2539;52.568;13.364;2023-07-31T03:10:36;16.10;99.90
5041;DHT22;2539;52.568;13.364;2023-07-31T03:13:02;16.10;99.90
5041;DHT22;2539;52.568;13.364;2023-07-31T03:15:29;16.10;99.90
5041;DHT22;2539;52.568;13.364;2023-07-31T03:17:55;16.10;99.90
5041;DHT22;2539;52.568;13.364;2023-07-31T03:20:21;16.10;99.90
5041;DHT22;2539;52.568;13.364;2023-07-31T03:22:47;16.00;99.90
5041;DHT22;2539;52.568;13.364;2023-07-31T03:25:14;16.00;99.90
5041;DHT22;2539;52.568;13.364;2023-07-31T03:27:40;16.00;99.90
5041;DHT22;2539;52.568;13.364;2023-07-31T03:30:07;16.00;99.90
5041;DHT22;2539;52.568;13.364;2023-07-31T03:32:33;16.00;99.90
5041;DHT22;2539;52.568;13.364;2023-07-31T03:35:00;16.00;99.90
5041;DHT22;2539;52.568;13.364;2023-07-31T03:37:26;16.10;99.90
5041;DHT22;2539;52.568;13.364;2023-07-31T03:39:52;16.10;99.90
5041;DHT22;2539;52.568;13.364;2023-07-31T03:42:19;16.10;99.90
5041;DHT22;2539;52.568;13.364;2023-07-31T03:44:45;16.10;99.90
5041;DHT22;2539;52.568;13.364;2023-07-31T03:47:11;16.10;99.90
5041;DHT22;2539;52.568;13.364;2023-07-31T03:49:37;16.10;99.90
5041;DHT22;2539;52.568;13.364;2023-07-31T03:52:04;16.10;99.90
5041;DHT22;2539;52.568;13.364;2023-07-31T03:54:30;16.10;99.90
5041;DHT22;2539;52.568;13.364;2023-07-31T03:56:57;16.10;99.90
5041;DHT22;2539;52.568;13.364;2023-07-31T03:59:23;16.10;99.90
5041;DHT22;2539;52.568;13.364;2023-07-31T04:01:49;16.10;99.90
5041;DHT22;2539;52.568;13.364;2023-07-31T04:04:15;16.10;99.90
5041;DHT22;2539;52.568;13.364;2023-07-31T04:06:42;16.10;99.90
5041;DHT22;2539;52.568;13.364;2023-07-31T04:09:08;16.10;99.90
5041;DHT22;2539;52.568;13.364;2023-07-31T04:11:34;16.10;99.90
5041;DHT22;2539;52.568;13.364;2023-07-31T04:14:00;16.10;99.90
5041;DHT22;2539;52.568;13.364;2023-07-31T04:16:27;16.20;99.90
5041;DHT22;2539;52.568;13.364;2023-07-31T04:18:53;16.20;99.90
5041;DHT22;2539;52.568;13.364;2023-07-31T04:21:19;16.20;99.90
5041;DHT22;2539;52.568;13.364;2023-07-31T04:23:45;16.30;99.90
5041;DHT22;2539;52.568;13.364;2023-07-31T04:26:12;16.30;99.90
5041;DHT22;2539;52.568;13.364;2023-07-31T04:28:38;16.40;99.90
5041;DHT22;2539;52.568;13.364;2023-07-31T04:31:04;16.40;99.90
5041;DHT22;2539;52.568;13.364;2023-07-31T04:33:30;16.40;99.90
5041;DHT22;2539;52.568;13.364;2023-07-31T04:35:57;16.50;99.90
5041;DHT22;2539;52.568;13.364;2023-07-31T04:38:25;16.40;99.90
5041;DHT22;2539;52.568;13.364;2023-07-31T04:40:52;16.40;99.90
5041;DHT22;2539;52.568;13.364;2023-07-31T04:43:18;16.40;99.90
5041;DHT22;2539;52.568;13.364;2023-07-31T04:45:47;16.50;99.90
5041;DHT22;2539;52.568;13.364;2023-07-31T04:48:14;16.50;99.90
5041;DHT22;2539;52.568;13.364;2023-07-31T04:50:41;16.50;99.90
5041;DHT22;2539;52.568;13.364;2023-07-31T04:53:07;16.50;99.90
5041;DHT22;2539;52.568;13.364;2023-07-31T04:55:33;16.40;99.90
5041;DHT22;2539;52.568;13.364;2023-07-31T04:57:59;16.40;99.90
5041;DHT22;2539;52.568;13.364;2023-07-31T05:00:26;16.40;99.90
5041;DHT22;2539;52.568;13.364;2023-07-31T05:02:52;16.40;99.90
5041;DHT22;2539;52.568;13.364;2023-07-31T05:05:18;16.40;99.90
5041;DHT22;2539;52.568;13.364;2023-07-31T05:08:06;16.50;99.90
5041;DHT22;2539;52.568;13.364;2023-07-31T05:10:32;16.60;99.90
5041;DHT22;2539;52.568;13.364;2023-07-31T05:12:58;16.60;99.90
5041;DHT22;2539;52.568;13.364;2023-07-31T05:15:25;16.70;99.90
5041;DHT22;2539;52.568;13.364;2023-07-31T05:17:51;16.70;99.90
5041;DHT22;2539;52.568;13.364;2023-07-31T05:20:17;16.70;99.90
5041;DHT22;2539;52.568;13.364;2023-07-31T05:22:42;16.70;99.90
5041;DHT22;2539;52.568;13.364;2023-07-31T05:25:08;16.80;99.90
5041;DHT22;2539;52.568;13.364;2023-07-31T05:27:34;16.90;99.90
5041;DHT22;2539;52.568;13.364;2023-07-31T05:30:00;17.00;99.90
5041;DHT22;2539;52.568;13.364;2023-07-31T05:32:26;17.10;99.90
5041;DHT22;2539;52.568;13.364;2023-07-31T05:34:52;17.20;99.90
5041;DHT22;2539;52.568;13.364;2023-07-31T05:37:19;17.20;99.90
5041;DHT22;2539;52.568;13.364;2023-07-31T05:39:46;17.30;99.90
5041;DHT22;2539;52.568;13.364;2023-07-31T05:42:12;17.40;99.90
5041;DHT22;2539;52.568;13.364;2023-07-31T05:44:38;17.50;99.90
5041;DHT22;2539;52.568;13.364;2023-07-31T05:47:05;17.40;99.90
5041;DHT22;2539;52.568;13.364;2023-07-31T05:49:31;17.40;99.90
5041;DHT22;2539;52.568;13.364;2023-07-31T05:51:57;17.30;99.90
5041;DHT22;2539;52.568;13.364;2023-07-31T05:54:24;17.30;99.90
5041;DHT22;2539;52.568;13.364;2023-07-31T05:56:50;17.30;99.90
5041;DHT22;2539;52.568;13.364;2023-07-31T05:59:17;17.40;99.90
5041;DHT22;2539;52.568;13.364;2023-07-31T06:01:43;17.30;99.90
5041;DHT22;2539;52.568;13.364;2023-07-31T06:04:09;17.40;99.90
5041;DHT22;2539;52.568;13.364;2023-07-31T06:06:35;17.40;99.90
5041;DHT22;2539;52.568;13.364;2023-07-31T06:09:02;17.40;99.90
5041;DHT22;2539;52.568;13.364;2023-07-31T06:11:29;17.50;99.90
5041;DHT22;2539;52.568;13.364;2023-07-31T06:13:56;17.50;99.90
5041;DHT22;2539;52.568;13.364;2023-07-31T06:16:23;17.60;99.90
5041;DHT22;2539;52.568;13.364;2023-07-31T06:18:49;17.60;99.90
5041;DHT22;2539;52.568;13.364;2023-07-31T06:21:14;17.60;99.90
5041;DHT22;2539;52.568;13.364;2023-07-31T06:23:40;17.60;99.90
5041;DHT22;2539;52.568;13.364;2023-07-31T06:26:06;17.70;99.90
5041;DHT22;2539;52.568;13.364;2023-07-31T06:28:32;17.80;99.90
5041;DHT22;2539;52.568;13.364;2023-07-31T06:30:58;17.80;99.90
5041;DHT22;2539;52.568;13.364;2023-07-31T06:33:25;17.80;99.90
5041;DHT22;2539;52.568;13.364;2023-07-31T06:35:51;17.80;99.90
5041;DHT22;2539;52.568;13.364;2023-07-31T06:38:23;17.90;99.90
5041;DHT22;2539;52.568;13.364;2023-07-31T06:40:50;18.00;99.90
5041;DHT22;2539;52.568;13.364;2023-07-31T06:43:16;18.20;99.90
5041;DHT22;2539;52.568;13.364;2023-07-31T06:45:42;18.30;99.90
5041;DHT22;2539;52.568;13.364;2023-07-31T06:48:09;18.50;99.90
5041;DHT22;2539;52.568;13.364;2023-07-31T06:50:35;18.60;99.90
5041;DHT22;2539;52.568;13.364;2023-07-31T06:53:01;18.60;99.90
5041;DHT22;2539;52.568;13.364;2023-07-31T06:55:28;18.50;99.90
5041;DHT22;2539;52.568;13.364;2023-07-31T06:57:55;18.50;99.90
5041;DHT22;2539;52.568;13.364;2023-07-31T07:00:22;18.60;99.90
5041;DHT22;2539;52.568;13.364;2023-07-31T07:02:49;18.70;99.90
5041;DHT22;2539;52.568;13.364;2023-07-31T07:05:16;18.60;99.90
5041;DHT22;2539;52.568;13.364;2023-07-31T07:07:43;18.60;99.90
5041;DHT22;2539;52.568;13.364;2023-07-31T07:10:09;18.50;99.90
5041;DHT22;2539;52.568;13.364;2023-07-31T07:12:36;18.40;99.90
5041;DHT22;2539;52.568;13.364;2023-07-31T07:15:02;18.20;99.90
5041;DHT22;2539;52.568;13.364;2023-07-31T07:17:30;18.10;99.90
5041;DHT22;2539;52.568;13.364;2023-07-31T07:20:00;18.10;99.90
5041;DHT22;2539;52.568;13.364;2023-07-31T07:22:27;18.00;99.90
5041;DHT22;2539;52.568;13.364;2023-07-31T07:24:53;17.90;99.90
5041;DHT22;2539;52.568;13.364;2023-07-31T07:27:20;17.80;99.90
5041;DHT22;2539;52.568;13.364;2023-07-31T07:29:46;18.00;99.90
5041;DHT22;2539;52.568;13.364;2023-07-31T07:32:12;18.30;99.90
5041;DHT22;2539;52.568;13.364;2023-07-31T07:34:39;18.80;99.90
5041;DHT22;2539;52.568;13.364;2023-07-31T07:37:05;18.90;99.90
5041;DHT22;2539;52.568;13.364;2023-07-31T07:39:32;18.90;99.90
5041;DHT22;2539;52.568;13.364;2023-07-31T07:41:58;18.90;99.90
5041;DHT22;2539;52.568;13.364;2023-07-31T07:44:24;18.80;99.90
5041;DHT22;2539;52.568;13.364;2023-07-31T07:46:50;18.70;99.90
5041;DHT22;2539;52.568;13.364;2023-07-31T07:49:16;18.70;99.90
5041;DHT22;2539;52.568;13.364;2023-07-31T07:51:43;18.70;99.90
5041;DHT22;2539;52.568;13.364;2023-07-31T07:54:09;18.70;99.90
5041;DHT22;2539;52.568;13.364;2023-07-31T07:56:35;18.90;99.90
5041;DHT22;2539;52.568;13.364;2023-07-31T07:59:02;19.00;99.90
5041;DHT22;2539;52.568;13.364;2023-07-31T08:01:28;18.90;99.90
5041;DHT22;2539;52.568;13.364;2023-07-31T08:03:54;18.80;99.90
5041;DHT22;2539;52.568;13.364;2023-07-31T08:06:21;18.60;99.90
5041;DHT22;2539;52.568;13.364;2023-07-31T08:08:48;18.40;99.90
5041;DHT22;2539;52.568;13.364;2023-07-31T08:11:14;18.40;99.90
5041;DHT22;2539;52.568;13.364;2023-07-31T08:13:41;18.50;99.90
5041;DHT22;2539;52.568;13.364;2023-07-31T08:16:07;18.50;99.90
5041;DHT22;2539;52.568;13.364;2023-07-31T08:18:34;18.40;99.90
5041;DHT22;2539;52.568;13.364;2023-07-31T08:21:02;18.40;99.90
5041;DHT22;2539;52.568;13.364;2023-07-31T08:23:28;18.40;99.90
5041;DHT22;2539;52.568;13.364;2023-07-31T08:25:55;18.30;99.90
5041;DHT22;2539;52.568;13.364;2023-07-31T08:28:21;18.10;99.90
5041;DHT22;2539;52.568;13.364;2023-07-31T08:30:47;18.00;99.90
5041;DHT22;2539;52.568;13.364;2023-07-31T08:33:13;18.00;99.90
5041;DHT22;2539;52.568;13.364;2023-07-31T08:35:40;18.00;99.90
5041;DHT22;2539;52.568;13.364;2023-07-31T08:38:06;18.10;99.90
5041;DHT22;2539;52.568;13.364;2023-07-31T08:40:36;18.20;99.90
5041;DHT22;2539;52.568;13.364;2023-07-31T08:43:02;18.30;99.90
5041;DHT22;2539;52.568;13.364;2023-07-31T08:45:28;18.50;99.90
5041;DHT22;2539;52.568;13.364;2023-07-31T08:47:56;18.60;99.90
5041;DHT22;2539;52.568;13.364;2023-07-31T08:50:22;18.70;99.90
5041;DHT22;2539;52.568;13.364;2023-07-31T08:52:50;18.90;99.90
5041;DHT22;2539;52.568;13.364;2023-07-31T08:55:17;19.20;99.90
5041;DHT22;2539;52.568;13.364;2023-07-31T08:57:44;19.50;99.90
5041;DHT22;2539;52.568;13.364;2023-07-31T09:00:13;19.70;99.90
5041;DHT22;2539;52.568;13.364;2023-07-31T09:02:51;19.90;99.90
5041;DHT22;2539;52.568;13.364;2023-07-31T09:05:19;19.80;99.90
5041;DHT22;2539;52.568;13.364;2023-07-31T09:07:47;19.70;99.90
5041;DHT22;2539;52.568;13.364;2023-07-31T09:10:14;19.80;99.90
5041;DHT22;2539;52.568;13.364;2023-07-31T09:12:40;19.80;99.90
5041;DHT22;2539;52.568;13.364;2023-07-31T09:15:07;19.80;99.90
5041;DHT22;2539;52.568;13.364;2023-07-31T09:17:35;19.60;99.90
5041;DHT22;2539;52.568;13.364;2023-07-31T09:20:19;19.70;99.90
5041;DHT22;2539;52.568;13.364;2023-07-31T09:22:46;20.00;99.90
5041;DHT22;2539;52.568;13.364;2023-07-31T09:25:21;20.10;99.90
5041;DHT22;2539;52.568;13.364;2023-07-31T09:27:58;20.10;99.90
5041;DHT22;2539;52.568;13.364;2023-07-31T09:30:25;19.90;99.90
5041;DHT22;2539;52.568;13.364;2023-07-31T09:33:03;19.70;99.90
5041;DHT22;2539;52.568;13.364;2023-07-31T09:35:31;19.50;99.90
5041;DHT22;2539;52.568;13.364;2023-07-31T09:38:00;19.20;99.90
5041;DHT22;2539;52.568;13.364;2023-07-31T09:40:31;19.00;99.90
5041;DHT22;2539;52.568;13.364;2023-07-31T09:43:03;18.80;99.90
5041;DHT22;2539;52.568;13.364;2023-07-31T09:45:30;18.60;99.90
5041;DHT22;2539;52.568;13.364;2023-07-31T09:47:57;18.50;99.90
5041;DHT22;2539;52.568;13.364;2023-07-31T09:50:24;18.50;99.90
5041;DHT22;2539;52.568;13.364;2023-07-31T09:52:51;18.40;99.90
5041;DHT22;2539;52.568;13.364;2023-07-31T09:55:19;18.40;99.90
5041;DHT22;2539;52.568;13.364;2023-07-31T09:57:47;18.60;99.90
5041;DHT22;2539;52.568;13.364;2023-07-31T10:00:17;18.60;99.90
5041;DHT22;2539;52.568;13.364;2023-07-31T10:02:47;18.60;99.90
5041;DHT22;2539;52.568;13.364;2023-07-31T10:05:14;18.70;99.90
5041;DHT22;2539;52.568;13.364;2023-07-31T10:07:45;19.10;99.90
5041;DHT22;2539;52.568;13.364;2023-07-31T10:10:15;19.50;99.90
5041;DHT22;2539;52.568;13.364;2023-07-31T10:12:42;19.90;99.90
5041;DHT22;2539;52.568;13.364;2023-07-31T10:15:10;19.90;99.90
5041;DHT22;2539;52.568;13.364;2023-07-31T10:17:37;20.00;99.90
5041;DHT22;2539;52.568;13.364;2023-07-31T10:20:04;19.90;99.90
5041;DHT22;2539;52.568;13.364;2023-07-31T10:22:33;19.60;99.90
5041;DHT22;2539;52.568;13.364;2023-07-31T10:25:00;19.30;99.90
5041;DHT22;2539;52.568;13.364;2023-07-31T10:27:26;19.10;99.90
5041;DHT22;2539;52.568;13.364;2023-07-31T10:29:57;18.90;99.90
5041;DHT22;2539;52.568;13.364;2023-07-31T10:32:25;18.90;99.90
5041;DHT22;2539;52.568;13.364;2023-07-31T10:34:51;18.90;99.90
5041;DHT22;2539;52.568;13.364;2023-07-31T10:37:36;19.00;99.90
5041;DHT22;2539;52.568;13.364;2023-07-31T10:42:44;19.10;99.90
5041;DHT22;2539;52.568;13.364;2023-07-31T10:45:11;19.10;99.90
5041;DHT22;2539;52.568;13.364;2023-07-31T10:47:47;19.20;99.90
5041;DHT22;2539;52.568;13.364;2023-07-31T10:50:20;19.50;99.90
5041;DHT22;2539;52.568;13.364;2023-07-31T10:52:48;20.00;99.90
5041;DHT22;2539;52.568;13.364;2023-07-31T10:58:00;20.90;99.90
5041;DHT22;2539;52.568;13.364;2023-07-31T11:00:30;21.20;99.90
5041;DHT22;2539;52.568;13.364;2023-07-31T11:03:17;21.50;99.90
5041;DHT22;2539;52.568;13.364;2023-07-31T11:05:47;21.80;99.90
5041;DHT22;2539;52.568;13.364;2023-07-31T11:08:23;21.90;99.90
5041;DHT22;2539;52.568;13.364;2023-07-31T11:13:29;21.40;99.90
5041;DHT22;2539;52.568;13.364;2023-07-31T11:15:56;21.30;99.90
5041;DHT22;2539;52.568;13.364;2023-07-31T11:18:22;21.30;99.90
5041;DHT22;2539;52.568;13.364;2023-07-31T11:20:49;21.50;99.90
5041;DHT22;2539;52.568;13.364;2023-07-31T11:23:17;21.60;99.90
5041;DHT22;2539;52.568;13.364;2023-07-31T11:25:44;21.60;99.90
5041;DHT22;2539;52.568;13.364;2023-07-31T11:28:15;21.50;99.90
5041;DHT22;2539;52.568;13.364;2023-07-31T11:30:43;21.50;99.90
5041;DHT22;2539;52.568;13.364;2023-07-31T11:33:11;21.50;99.90
5041;DHT22;2539;52.568;13.364;2023-07-31T11:35:43;21.50;99.90
5041;DHT22;2539;52.568;13.364;2023-07-31T11:38:28;21.20;99.90
5041;DHT22;2539;52.568;13.364;2023-07-31T11:40:56;21.10;99.90
5041;DHT22;2539;52.568;13.364;2023-07-31T11:43:23;20.90;99.90
5041;DHT22;2539;52.568;13.364;2023-07-31T11:45:54;20.80;99.90
5041;DHT22;2539;52.568;13.364;2023-07-31T11:48:22;20.60;99.90
5041;DHT22;2539;52.568;13.364;2023-07-31T11:50:50;20.50;99.90
5041;DHT22;2539;52.568;13.364;2023-07-31T11:53:25;20.50;99.90
5041;DHT22;2539;52.568;13.364;2023-07-31T11:55:51;20.60;99.90
5041;DHT22;2539;52.568;13.364;2023-07-31T11:58:17;20.80;99.90
5041;DHT22;2539;52.568;13.364;2023-07-31T12:00:44;20.90;99.90
5041;DHT22;2539;52.568;13.364;2023-07-31T12:03:10;20.80;99.90
5041;DHT22;2539;52.568;13.364;2023-07-31T12:05:37;20.70;99.90
5041;DHT22;2539;52.568;13.364;2023-07-31T12:08:09;20.80;99.90
5041;DHT22;2539;52.568;13.364;2023-07-31T12:10:37;20.80;99.90
5041;DHT22;2539;52.568;13.364;2023-07-31T12:13:05;20.60;99.90
5041;DHT22;2539;52.568;13.364;2023-07-31T12:15:44;20.40;99.90
5041;DHT22;2539;52.568;13.364;2023-07-31T12:18:12;20.40;99.90
5041;DHT22;2539;52.568;13.364;2023-07-31T12:20:43;20.50;99.90
5041;DHT22;2539;52.568;13.364;2023-07-31T12:23:17;20.80;99.90
5041;DHT22;2539;52.568;13.364;2023-07-31T12:25:43;21.00;99.90
5041;DHT22;2539;52.568;13.364;2023-07-31T12:28:09;21.00;99.90
5041;DHT22;2539;52.568;13.364;2023-07-31T12:30:40;21.10;99.90
5041;DHT22;2539;52.568;13.364;2023-07-31T12:33:13;21.00;99.90
5041;DHT22;2539;52.568;13.364;2023-07-31T12:35:47;20.90;99.90
5041;DHT22;2539;52.568;13.364;2023-07-31T12:38:14;20.90;99.90
5041;DHT22;2539;52.568;13.364;2023-07-31T12:40:41;20.90;99.90
5041;DHT22;2539;52.568;13.364;2023-07-31T12:43:08;20.90;99.90
5041;DHT22;2539;52.568;13.364;2023-07-31T12:45:34;20.90;99.90
5041;DHT22;2539;52.568;13.364;2023-07-31T12:48:01;20.90;99.90
5041;DHT22;2539;52.568;13.364;2023-07-31T12:50:27;21.10;99.90
5041;DHT22;2539;52.568;13.364;2023-07-31T12:52:54;21.30;99.90
5041;DHT22;2539;52.568;13.364;2023-07-31T12:55:22;21.20;99.90
5041;DHT22;2539;52.568;13.364;2023-07-31T12:57:49;21.00;99.90
5041;DHT22;2539;52.568;13.364;2023-07-31T13:00:16;20.90;99.90
5041;DHT22;2539;52.568;13.364;2023-07-31T13:02:42;20.60;99.90
5041;DHT22;2539;52.568;13.364;2023-07-31T13:05:08;20.10;99.90
5041;DHT22;2539;52.568;13.364;2023-07-31T13:07:35;20.20;99.90
5041;DHT22;2539;52.568;13.364;2023-07-31T13:10:00;20.70;99.90
5041;DHT22;2539;52.568;13.364;2023-07-31T13:12:26;20.80;99.90
5041;DHT22;2539;52.568;13.364;2023-07-31T13:14:52;20.50;99.90
5041;DHT22;2539;52.568;13.364;2023-07-31T13:17:18;20.40;99.90
5041;DHT22;2539;52.568;13.364;2023-07-31T13:19:45;20.40;99.90
5041;DHT22;2539;52.568;13.364;2023-07-31T13:22:11;20.70;99.90
5041;DHT22;2539;52.568;13.364;2023-07-31T13:24:37;20.90;99.90
5041;DHT22;2539;52.568;13.364;2023-07-31T13:27:03;21.10;99.90
5041;DHT22;2539;52.568;13.364;2023-07-31T13:29:30;21.20;99.90
5041;DHT22;2539;52.568;13.364;2023-07-31T13:31:56;21.40;99.90
5041;DHT22;2539;52.568;13.364;2023-07-31T13:34:22;21.70;99.90
5041;DHT22;2539;52.568;13.364;2023-07-31T13:36:48;21.90;99.90
5041;DHT22;2539;52.568;13.364;2023-07-31T13:39:15;22.00;99.90
5041;DHT22;2539;52.568;13.364;2023-07-31T13:41:41;22.20;99.90
5041;DHT22;2539;52.568;13.364;2023-07-31T13:44:08;22.60;99.90
5041;DHT22;2539;52.568;13.364;2023-07-31T13:46:34;22.70;99.90
5041;DHT22;2539;52.568;13.364;2023-07-31T13:49:00;22.80;99.90
5041;DHT22;2539;52.568;13.364;2023-07-31T13:51:27;23.00;99.90
5041;DHT22;2539;52.568;13.364;2023-07-31T13:53:54;23.00;99.90
5041;DHT22;2539;52.568;13.364;2023-07-31T13:56:20;22.80;99.90
5041;DHT22;2539;52.568;13.364;2023-07-31T13:58:46;22.40;99.90
5041;DHT22;2539;52.568;13.364;2023-07-31T14:01:13;22.20;99.90
5041;DHT22;2539;52.568;13.364;2023-07-31T14:03:39;22.10;99.90
5041;DHT22;2539;52.568;13.364;2023-07-31T14:06:05;22.00;99.90
5041;DHT22;2539;52.568;13.364;2023-07-31T14:08:31;21.80;99.90
5041;DHT22;2539;52.568;13.364;2023-07-31T14:10:57;21.70;99.90
5041;DHT22;2539;52.568;13.364;2023-07-31T14:13:24;21.60;99.90
5041;DHT22;2539;52.568;13.364;2023-07-31T14:15:50;21.50;99.90
5041;DHT22;2539;52.568;13.364;2023-07-31T14:18:17;21.40;99.90
5041;DHT22;2539;52.568;13.364;2023-07-31T14:20:43;21.50;99.90
5041;DHT22;2539;52.568;13.364;2023-07-31T14:23:10;21.60;99.90
5041;DHT22;2539;52.568;13.364;2023-07-31T14:25:36;21.60;99.90
5041;DHT22;2539;52.568;13.364;2023-07-31T14:28:02;21.70;99.90
5041;DHT22;2539;52.568;13.364;2023-07-31T14:30:29;21.70;99.90
5041;DHT22;2539;52.568;13.364;2023-07-31T14:32:55;21.80;99.90
5041;DHT22;2539;52.568;13.364;2023-07-31T14:35:21;21.80;99.90
5041;DHT22;2539;52.568;13.364;2023-07-31T14:37:48;21.70;99.90
5041;DHT22;2539;52.568;13.364;2023-07-31T14:40:14;21.80;99.90
5041;DHT22;2539;52.568;13.364;2023-07-31T14:42:40;21.70;99.90
5041;DHT22;2539;52.568;13.364;2023-07-31T14:45:07;21.60;99.90
5041;DHT22;2539;52.568;13.364;2023-07-31T14:47:34;21.50;99.90
5041;DHT22;2539;52.568;13.364;2023-07-31T14:50:01;21.50;99.90
5041;DHT22;2539;52.568;13.364;2023-07-31T14:52:29;21.50;99.90
5041;DHT22;2539;52.568;13.364;2023-07-31T14:54:55;21.40;99.90
5041;DHT22;2539;52.568;13.364;2023-07-31T14:57:21;21.30;99.90
5041;DHT22;2539;52.568;13.364;2023-07-31T14:59:48;21.30;99.90
5041;DHT22;2539;52.568;13.364;2023-07-31T15:02:14;21.20;99.90
5041;DHT22;2539;52.568;13.364;2023-07-31T15:04:41;21.10;99.90
5041;DHT22;2539;52.568;13.364;2023-07-31T15:07:07;21.10;99.90
5041;DHT22;2539;52.568;13.364;2023-07-31T15:09:33;21.10;99.90
5041;DHT22;2539;52.568;13.364;2023-07-31T15:12:00;21.10;99.90
5041;DHT22;2539;52.568;13.364;2023-07-31T15:14:26;21.10;99.90
5041;DHT22;2539;52.568;13.364;2023-07-31T15:16:57;21.00;99.90
5041;DHT22;2539;52.568;13.364;2023-07-31T15:19:23;21.00;99.90
5041;DHT22;2539;52.568;13.364;2023-07-31T15:21:50;20.90;99.90
5041;DHT22;2539;52.568;13.364;2023-07-31T15:24:16;20.90;99.90
5041;DHT22;2539;52.568;13.364;2023-07-31T15:26:42;21.10;99.90
5041;DHT22;2539;52.568;13.364;2023-07-31T15:29:09;21.40;99.90
5041;DHT22;2539;52.568;13.364;2023-07-31T15:31:40;21.70;99.90
5041;DHT22;2539;52.568;13.364;2023-07-31T15:34:07;21.90;99.90
5041;DHT22;2539;52.568;13.364;2023-07-31T15:36:33;21.80;99.90
5041;DHT22;2539;52.568;13.364;2023-07-31T15:39:00;21.60;99.90
5041;DHT22;2539;52.568;13.364;2023-07-31T15:41:26;21.40;99.90
5041;DHT22;2539;52.568;13.364;2023-07-31T15:43:52;21.20;99.90
5041;DHT22;2539;52.568;13.364;2023-07-31T15:46:19;21.20;99.90
5041;DHT22;2539;52.568;13.364;2023-07-31T15:48:45;21.10;99.90
5041;DHT22;2539;52.568;13.364;2023-07-31T15:51:11;21.10;99.90
5041;DHT22;2539;52.568;13.364;2023-07-31T15:53:38;21.00;99.90
5041;DHT22;2539;52.568;13.364;2023-07-31T15:56:04;21.00;99.90